Time;durP1;ratioP1;P1;durP2;ratioP2;P2;SDS_P1;SDS_P2;PMS_P1;PMS_P2;Temp;Humidity;BMP_temperature;BMP_pressure;BME280_temperature;BME280_humidity;BME280_pressure;Samples;Min_cycle;Max_cycle;Signal;HPM_P1;HPM_P2
2021/11/16 00:00:24;;;;;;;;;;;6.50;1.00;;;;;;5009471;28;20321;-70
2021/11/16 00:02:49;;;;;;;;;;;6.50;1.00;;;;;;5008578;28;19917;-70
2021/11/16 00:05:15;;;;;;;;;;;6.40;1.00;;;;;;5009257;28;20315;-70
2021/11/16 00:07:41;;;;;;;;;;;6.40;1.00;;;;;;5008236;28;20243;-70
2021/11/16 00:10:07;;;;;;;;;;;6.40;1.00;;;;;;4991643;28;20308;-70
2021/11/16 00:12:33;;;;;;;;;;;6.40;1.00;;;;;;5010739;28;19936;-68
2021/11/16 00:14:58;;;;;;;;;;;6.40;1.00;;;;;;5013710;28;20434;-69
2021/11/16 00:17:24;;;;;;;;;;;6.40;1.00;;;;;;5012681;28;20209;-70
2021/11/16 00:19:51;;;;;;;;;;;6.40;1.00;;;;;;5013197;28;20404;-69
2021/11/16 00:22:18;;;;;;;;;;;6.40;1.00;;;;;;5011253;28;19914;-67
2021/11/16 00:25:09;;;;;;;;;;;6.40;1.00;;;;;;5013052;28;19913;-69
2021/11/16 00:27:32;;;;;;;;;;;6.40;1.00;;;;;;5011787;28;20492;-70
2021/11/16 00:29:58;;;;;;;;;;;6.50;1.00;;;;;;5013013;28;19979;-69
2021/11/16 00:32:23;;;;;;;;;;;6.50;1.00;;;;;;5011851;28;19956;-70
2021/11/16 00:34:49;;;;;;;;;;;6.50;1.00;;;;;;5012884;28;20330;-70
2021/11/16 00:37:16;;;;;;;;;;;6.60;1.00;;;;;;5012322;28;19920;-69
2021/11/16 00:39:41;;;;;;;;;;;6.60;1.00;;;;;;5012023;28;19956;-71
2021/11/16 00:42:07;;;;;;;;;;;6.50;1.00;;;;;;5012184;28;19909;-69
2021/11/16 00:44:33;;;;;;;;;;;6.50;1.00;;;;;;5012984;28;19921;-69
2021/11/16 00:46:58;;;;;;;;;;;6.50;1.00;;;;;;5013156;28;19913;-70
2021/11/16 00:49:24;;;;;;;;;;;6.50;1.00;;;;;;5012848;28;19955;-71
2021/11/16 00:51:49;;;;;;;;;;;6.50;1.00;;;;;;5004186;28;20551;-70
2021/11/16 00:54:15;;;;;;;;;;;6.50;1.00;;;;;;5011324;28;19909;-70
2021/11/16 00:56:40;;;;;;;;;;;6.40;1.00;;;;;;5012781;28;19925;-71
2021/11/16 00:59:06;;;;;;;;;;;6.40;1.00;;;;;;5012589;28;19914;-70
2021/11/16 01:01:31;;;;;;;;;;;6.40;1.00;;;;;;5012441;28;20239;-70
2021/11/16 01:03:59;;;;;;;;;;;6.50;1.00;;;;;;5011610;28;19969;-71
2021/11/16 01:06:25;;;;;;;;;;;6.50;1.00;;;;;;5012534;28;20382;-70
2021/11/16 01:08:50;;;;;;;;;;;6.50;1.00;;;;;;5011394;28;19964;-70
2021/11/16 01:11:16;;;;;;;;;;;6.50;1.00;;;;;;5012183;28;20002;-70
2021/11/16 01:13:41;;;;;;;;;;;6.50;1.00;;;;;;5011227;28;19910;-70
2021/11/16 01:16:07;;;;;;;;;;;6.50;1.00;;;;;;5011961;28;19979;-68
2021/11/16 01:18:32;;;;;;;;;;;6.50;1.00;;;;;;5011928;28;20127;-70
2021/11/16 01:20:58;;;;;;;;;;;6.60;1.00;;;;;;5011959;28;19914;-71
2021/11/16 01:23:24;;;;;;;;;;;6.60;1.00;;;;;;5009683;28;19941;-70
2021/11/16 01:25:49;;;;;;;;;;;6.60;1.00;;;;;;5011786;28;19910;-68
2021/11/16 01:28:18;;;;;;;;;;;6.60;1.00;;;;;;5011891;28;19913;-71
2021/11/16 01:30:46;;;;;;;;;;;6.60;1.00;;;;;;5011949;28;19959;-70
2021/11/16 01:33:14;;;;;;;;;;;6.60;1.00;;;;;;5011264;28;19914;-70
2021/11/16 01:35:40;;;;;;;;;;;6.60;1.00;;;;;;5012091;28;19913;-70
2021/11/16 01:38:07;;;;;;;;;;;6.70;1.00;;;;;;5009841;28;20474;-70
2021/11/16 01:40:34;;;;;;;;;;;6.70;1.00;;;;;;5011859;28;20009;-71
2021/11/16 01:43:00;;;;;;;;;;;6.70;1.00;;;;;;5010665;28;19909;-71
2021/11/16 01:45:25;;;;;;;;;;;6.70;1.00;;;;;;5011565;28;19920;-70
2021/11/16 01:47:51;;;;;;;;;;;6.80;1.00;;;;;;5011370;28;19909;-70
2021/11/16 01:50:18;;;;;;;;;;;6.70;1.00;;;;;;5011706;28;19910;-69
2021/11/16 01:52:43;;;;;;;;;;;6.70;1.00;;;;;;5009238;28;19914;-70
2021/11/16 01:55:10;;;;;;;;;;;6.80;1.00;;;;;;5011825;28;19929;-70
2021/11/16 01:57:36;;;;;;;;;;;6.70;1.00;;;;;;5011127;28;19920;-70
2021/11/16 02:00:04;;;;;;;;;;;6.70;1.00;;;;;;5011209;28;19910;-70
2021/11/16 02:02:29;;;;;;;;;;;6.70;1.00;;;;;;5010633;28;19909;-71
2021/11/16 02:04:55;;;;;;;;;;;6.80;1.00;;;;;;5011689;28;19910;-71
2021/11/16 02:07:20;;;;;;;;;;;6.70;1.00;;;;;;5009953;28;20455;-68
2021/11/16 02:09:46;;;;;;;;;;;6.70;1.00;;;;;;5011348;28;19916;-70
2021/11/16 02:12:11;;;;;;;;;;;6.70;1.00;;;;;;5010337;28;19952;-70
2021/11/16 02:14:37;;;;;;;;;;;6.70;1.00;;;;;;5010889;28;19920;-69
2021/11/16 02:17:03;;;;;;;;;;;6.70;1.00;;;;;;5011020;28;20016;-68
2021/11/16 02:19:29;;;;;;;;;;;6.70;1.00;;;;;;5010837;28;20302;-69
2021/11/16 02:21:54;;;;;;;;;;;6.70;1.00;;;;;;5009957;28;19913;-68
2021/11/16 02:24:20;;;;;;;;;;;6.70;1.00;;;;;;5009338;28;20466;-69
2021/11/16 02:26:46;;;;;;;;;;;6.70;1.00;;;;;;5011270;28;20003;-69
2021/11/16 02:29:12;;;;;;;;;;;6.70;1.00;;;;;;5005230;28;19914;-69
2021/11/16 02:31:38;;;;;;;;;;;6.70;1.00;;;;;;4991312;28;19922;-69
2021/11/16 02:34:05;;;;;;;;;;;6.70;1.00;;;;;;4989724;28;19918;-69
2021/11/16 02:36:32;;;;;;;;;;;6.70;1.00;;;;;;4991150;28;20009;-69
2021/11/16 02:38:57;;;;;;;;;;;6.70;1.00;;;;;;4989289;28;19918;-68
2021/11/16 02:41:29;;;;;;;;;;;6.70;1.00;;;;;;4991244;28;19946;-69
2021/11/16 02:43:55;;;;;;;;;;;6.70;1.00;;;;;;4990739;28;19910;-69
2021/11/16 02:46:21;;;;;;;;;;;6.70;1.00;;;;;;5010300;28;20262;-70
2021/11/16 02:48:46;;;;;;;;;;;6.70;1.00;;;;;;5010088;28;19913;-69
2021/11/16 02:51:12;;;;;;;;;;;6.70;1.00;;;;;;4990886;28;19917;-68
2021/11/16 02:53:38;;;;;;;;;;;6.70;1.00;;;;;;4988539;28;19909;-68
2021/11/16 02:56:04;;;;;;;;;;;6.70;1.00;;;;;;4990641;28;19914;-68
2021/11/16 02:58:30;;;;;;;;;;;6.70;1.00;;;;;;4990161;28;19918;-68
2021/11/16 03:00:58;;;;;;;;;;;6.70;1.00;;;;;;4990831;28;19913;-69
2021/11/16 03:03:24;;;;;;;;;;;6.70;1.00;;;;;;4989989;28;19957;-69
2021/11/16 03:05:50;;;;;;;;;;;6.70;1.00;;;;;;4990597;28;20434;-68
2021/11/16 03:08:20;;;;;;;;;;;6.60;1.00;;;;;;4988150;28;19909;-68
2021/11/16 03:10:46;;;;;;;;;;;6.60;1.00;;;;;;4990235;28;19920;-69
2021/11/16 03:13:12;;;;;;;;;;;6.60;1.00;;;;;;4989244;28;19910;-69
2021/11/16 03:15:39;;;;;;;;;;;6.50;1.00;;;;;;4990500;28;20340;-69
2021/11/16 03:18:04;;;;;;;;;;;6.60;1.00;;;;;;4989682;28;19914;-68
2021/11/16 03:20:30;;;;;;;;;;;6.60;1.00;;;;;;4990316;28;19988;-68
2021/11/16 03:23:06;;;;;;;;;;;6.50;1.00;;;;;;5007592;28;19952;-68
2021/11/16 03:25:34;;;;;;;;;;;6.50;1.00;;;;;;5010057;28;19925;-69
2021/11/16 03:28:04;;;;;;;;;;;6.50;1.00;;;;;;5009795;28;20020;-68
2021/11/16 03:30:30;;;;;;;;;;;6.40;1.00;;;;;;5009954;28;20008;-69
2021/11/16 03:32:56;;;;;;;;;;;6.40;1.00;;;;;;5008495;28;20000;-69
2021/11/16 03:35:21;;;;;;;;;;;6.30;1.00;;;;;;5010021;28;19910;-70
2021/11/16 03:37:50;;;;;;;;;;;6.20;1.00;;;;;;5007890;28;19971;-69
2021/11/16 03:40:16;;;;;;;;;;;6.20;1.00;;;;;;5010111;28;19917;-69
2021/11/16 03:42:43;;;;;;;;;;;6.20;1.00;;;;;;5008697;28;19932;-70
2021/11/16 03:45:09;;;;;;;;;;;6.20;1.00;;;;;;5009557;28;19914;-69
2021/11/16 03:47:35;;;;;;;;;;;6.20;1.00;;;;;;5008547;28;20287;-68
2021/11/16 03:50:01;;;;;;;;;;;6.20;1.00;;;;;;5009491;28;19913;-69
2021/11/16 03:52:26;;;;;;;;;;;6.10;1.00;;;;;;4998738;28;19917;-71
2021/11/16 03:54:53;;;;;;;;;;;6.00;1.00;;;;;;5009984;28;20402;-69
2021/11/16 03:57:19;;;;;;;;;;;6.00;1.00;;;;;;5009384;28;19953;-69
2021/11/16 03:59:44;;;;;;;;;;;5.90;1.00;;;;;;5009610;28;20359;-68
2021/11/16 04:02:11;;;;;;;;;;;5.90;1.00;;;;;;5008948;28;19916;-68
2021/11/16 04:04:37;;;;;;;;;;;6.00;1.00;;;;;;5009485;28;20287;-69
2021/11/16 04:07:02;;;;;;;;;;;6.00;1.00;;;;;;5009183;28;19910;-68
2021/11/16 04:09:28;;;;;;;;;;;6.00;1.00;;;;;;5007926;28;20404;-69
2021/11/16 04:11:53;;;;;;;;;;;6.00;1.00;;;;;;5009018;28;20015;-68
2021/11/16 04:14:19;;;;;;;;;;;6.00;1.00;;;;;;5009193;28;19910;-69
2021/11/16 04:16:44;;;;;;;;;;;6.00;1.00;;;;;;5009321;28;19909;-69
2021/11/16 04:19:10;;;;;;;;;;;6.00;1.00;;;;;;5009214;28;20017;-68
2021/11/16 04:21:36;;;;;;;;;;;6.00;1.00;;;;;;5009193;28;19910;-70
2021/11/16 04:24:01;;;;;;;;;;;6.00;1.00;;;;;;5007317;28;19971;-71
2021/11/16 04:26:27;;;;;;;;;;;6.00;1.00;;;;;;5009589;28;20497;-69
2021/11/16 04:28:53;;;;;;;;;;;6.00;1.00;;;;;;5008858;28;19914;-68
2021/11/16 04:31:18;;;;;;;;;;;5.90;1.00;;;;;;5009538;28;19921;-69
2021/11/16 04:33:44;;;;;;;;;;;5.90;1.00;;;;;;5008428;28;20239;-70
2021/11/16 04:36:12;;;;;;;;;;;5.90;1.00;;;;;;5009088;28;20044;-71
2021/11/16 04:38:37;;;;;;;;;;;5.90;1.00;;;;;;5007644;28;19913;-71
2021/11/16 04:41:03;;;;;;;;;;;6.00;1.00;;;;;;5009102;28;20370;-70
2021/11/16 04:43:30;;;;;;;;;;;6.00;1.00;;;;;;5008226;28;19914;-71
2021/11/16 04:45:59;;;;;;;;;;;6.00;1.00;;;;;;5009083;28;19999;-70
2021/11/16 04:48:53;;;;;;;;;;;6.00;1.00;;;;;;5008934;28;19916;-70
2021/11/16 04:51:32;;;;;;;;;;;6.00;1.00;;;;;;4989127;28;20008;-70
2021/11/16 05:04:38;;;;;;;;;;;5.90;1.00;;;;;;4993264;28;19916;-68
2021/11/16 05:07:10;;;;;;;;;;;5.90;1.00;;;;;;4992422;28;20330;-69
2021/11/16 05:09:35;;;;;;;;;;;5.90;1.00;;;;;;4991315;28;19992;-68
2021/11/16 05:12:01;;;;;;;;;;;5.90;1.00;;;;;;4991979;28;20012;-70
2021/11/16 05:14:26;;;;;;;;;;;5.90;1.00;;;;;;4992360;28;19996;-69
2021/11/16 05:16:52;;;;;;;;;;;5.90;1.00;;;;;;4992558;28;20358;-69
2021/11/16 05:19:17;;;;;;;;;;;5.90;1.00;;;;;;4992265;28;19920;-68
2021/11/16 05:21:43;;;;;;;;;;;5.90;1.00;;;;;;5003213;28;19917;-69
2021/11/16 05:24:08;;;;;;;;;;;5.90;1.00;;;;;;5010365;28;19916;-68
2021/11/16 05:26:34;;;;;;;;;;;5.80;1.00;;;;;;5012427;28;19916;-68
2021/11/16 05:29:00;;;;;;;;;;;5.80;1.00;;;;;;5003724;28;20067;-68
2021/11/16 05:31:26;;;;;;;;;;;5.80;1.00;;;;;;5011639;28;19922;-69
2021/11/16 05:33:54;;;;;;;;;;;5.80;1.00;;;;;;5011212;28;20004;-68
2021/11/16 05:36:19;;;;;;;;;;;5.80;1.00;;;;;;5011834;28;19916;-69
2021/11/16 05:38:47;;;;;;;;;;;5.80;1.00;;;;;;5009869;28;19917;-68
2021/11/16 05:41:13;;;;;;;;;;;5.80;1.00;;;;;;4993872;28;20268;-68
2021/11/16 05:43:39;;;;;;;;;;;5.70;1.00;;;;;;5006773;28;19924;-68
2021/11/16 05:46:04;;;;;;;;;;;5.70;1.00;;;;;;5010392;28;20361;-68
2021/11/16 05:48:34;;;;;;;;;;;5.70;1.00;;;;;;5011041;28;19909;-69
2021/11/16 05:51:00;;;;;;;;;;;5.70;1.00;;;;;;4992963;28;20040;-69
2021/11/16 05:53:25;;;;;;;;;;;5.70;1.00;;;;;;4988663;28;19936;-68
2021/11/16 05:55:51;;;;;;;;;;;5.70;1.00;;;;;;4990823;28;20012;-68
2021/11/16 05:58:17;;;;;;;;;;;5.70;1.00;;;;;;4990622;28;19920;-68
2021/11/16 06:00:43;;;;;;;;;;;5.60;1.00;;;;;;4989575;28;20345;-67
2021/11/16 06:03:08;;;;;;;;;;;5.60;1.00;;;;;;4988150;28;19913;-68
2021/11/16 06:05:34;;;;;;;;;;;5.50;1.00;;;;;;4988666;28;19914;-69
2021/11/16 06:07:59;;;;;;;;;;;5.50;1.00;;;;;;4989776;28;19953;-70
2021/11/16 06:10:25;;;;;;;;;;;5.60;1.00;;;;;;5007192;28;20419;-70
2021/11/16 06:12:50;;;;;;;;;;;5.60;1.00;;;;;;5006933;28;20305;-70
2021/11/16 06:15:16;;;;;;;;;;;5.60;1.00;;;;;;5008116;28;20362;-69
2021/11/16 06:17:42;;;;;;;;;;;5.60;1.00;;;;;;5007088;28;19972;-70
2021/11/16 06:20:09;;;;;;;;;;;5.60;1.00;;;;;;5007971;28;19913;-68
2021/11/16 06:22:34;;;;;;;;;;;5.60;1.00;;;;;;5005887;28;19957;-69
2021/11/16 06:25:00;;;;;;;;;;;5.60;1.00;;;;;;5008252;28;19956;-70
2021/11/16 06:27:26;;;;;;;;;;;5.60;1.00;;;;;;5007469;28;19917;-69
2021/11/16 06:29:51;;;;;;;;;;;5.60;1.00;;;;;;5007973;28;20358;-68
2021/11/16 06:32:17;;;;;;;;;;;5.60;1.00;;;;;;5007237;28;19917;-69
2021/11/16 06:34:42;;;;;;;;;;;5.60;1.00;;;;;;5007407;28;20063;-69
2021/11/16 06:37:08;;;;;;;;;;;5.60;1.00;;;;;;5007720;28;19940;-68
2021/11/16 06:39:33;;;;;;;;;;;5.60;1.00;;;;;;5006206;28;20366;-70
2021/11/16 06:42:01;;;;;;;;;;;5.60;1.00;;;;;;5006887;28;19939;-69
2021/11/16 06:44:26;;;;;;;;;;;5.60;1.00;;;;;;5007341;28;20259;-69
2021/11/16 06:46:53;;;;;;;;;;;5.60;1.00;;;;;;5006912;28;20121;-69
2021/11/16 06:49:19;;;;;;;;;;;5.70;1.00;;;;;;5002665;28;19909;-70
2021/11/16 06:51:46;;;;;;;;;;;5.70;1.00;;;;;;4996919;28;19940;-71
2021/11/16 06:54:13;;;;;;;;;;;5.80;1.00;;;;;;5005338;28;20315;-70
2021/11/16 06:56:47;;;;;;;;;;;5.80;1.00;;;;;;5016054;28;19967;-70
2021/11/16 06:59:12;;;;;;;;;;;5.70;1.00;;;;;;5002552;28;20121;-68
2021/11/16 07:01:38;;;;;;;;;;;5.70;1.00;;;;;;5007448;28;20331;-68
2021/11/16 07:04:09;;;;;;;;;;;5.80;1.00;;;;;;5001560;28;20334;-69
2021/11/16 07:06:35;;;;;;;;;;;5.80;1.00;;;;;;4989500;28;19917;-69
2021/11/16 07:09:00;;;;;;;;;;;5.90;1.00;;;;;;5006264;28;19914;-69
2021/11/16 07:11:27;;;;;;;;;;;5.90;1.00;;;;;;4996720;28;19917;-68
2021/11/16 07:13:52;;;;;;;;;;;6.00;1.00;;;;;;5005246;28;19920;-70
2021/11/16 07:16:18;;;;;;;;;;;6.00;1.00;;;;;;5006404;28;19913;-70
2021/11/16 07:18:51;;;;;;;;;;;6.00;1.00;;;;;;5006294;28;19917;-70
2021/11/16 07:21:21;;;;;;;;;;;6.00;1.00;;;;;;5005887;28;20000;-68
2021/11/16 07:24:00;;;;;;;;;;;6.00;1.00;;;;;;5001500;28;19913;-70
2021/11/16 07:26:26;;;;;;;;;;;6.00;1.00;;;;;;5007278;28;19983;-68
2021/11/16 07:28:51;;;;;;;;;;;6.10;1.00;;;;;;5006672;28;19921;-67
2021/11/16 07:31:18;;;;;;;;;;;6.10;1.00;;;;;;5006837;28;19914;-70
2021/11/16 07:33:43;;;;;;;;;;;6.10;1.00;;;;;;5005772;28;20310;-67
2021/11/16 07:36:09;;;;;;;;;;;6.20;1.00;;;;;;5007010;28;19914;-69
2021/11/16 07:38:35;;;;;;;;;;;6.20;1.00;;;;;;5005539;28;19921;-68
2021/11/16 07:41:00;;;;;;;;;;;6.20;1.00;;;;;;5007096;28;19909;-69
2021/11/16 07:43:29;;;;;;;;;;;6.20;1.00;;;;;;5005937;28;20270;-68
2021/11/16 07:45:55;;;;;;;;;;;6.10;1.00;;;;;;5006263;28;19917;-69
2021/11/16 07:48:22;;;;;;;;;;;6.10;1.00;;;;;;5008240;28;19961;-69
2021/11/16 07:50:50;;;;;;;;;;;6.10;1.00;;;;;;5009394;28;20374;-68
2021/11/16 07:53:21;;;;;;;;;;;6.10;1.00;;;;;;5006658;28;19914;-69
2021/11/16 07:55:53;;;;;;;;;;;6.20;1.00;;;;;;5009398;28;19979;-70
2021/11/16 07:58:19;;;;;;;;;;;6.20;1.00;;;;;;5008390;28;19913;-68
2021/11/16 08:00:48;;;;;;;;;;;6.30;1.00;;;;;;5008718;28;19920;-69
2021/11/16 08:03:16;;;;;;;;;;;6.20;1.00;;;;;;5009583;28;19977;-69
2021/11/16 08:10:54;;;;;;;;;;;6.20;1.00;;;;;;5009171;28;19967;-68
2021/11/16 08:13:27;;;;;;;;;;;6.20;1.00;;;;;;5008462;28;19917;-69
2021/11/16 08:16:04;;;;;;;;;;;6.30;1.00;;;;;;5008992;28;19914;-69
2021/11/16 08:18:36;;;;;;;;;;;6.30;1.00;;;;;;5008380;28;19914;-69
2021/11/16 08:21:01;;;;;;;;;;;6.30;1.00;;;;;;5008581;28;19990;-69
2021/11/16 08:23:27;;;;;;;;;;;6.30;1.00;;;;;;5006782;28;19981;-69
2021/11/16 08:25:55;;;;;;;;;;;6.40;1.00;;;;;;5008741;28;20068;-68
2021/11/16 08:28:21;;;;;;;;;;;6.30;1.00;;;;;;5001980;28;20294;-68
2021/11/16 08:30:47;;;;;;;;;;;6.30;1.00;;;;;;5007042;28;19966;-69
2021/11/16 08:33:13;;;;;;;;;;;6.30;1.00;;;;;;5009284;28;20289;-69
2021/11/16 08:35:43;;;;;;;;;;;6.30;1.00;;;;;;5012499;28;19975;-69
2021/11/16 08:38:12;;;;;;;;;;;6.30;1.00;;;;;;5010999;28;19917;-69
2021/11/16 08:40:39;;;;;;;;;;;6.40;1.00;;;;;;5012235;28;19933;-69
2021/11/16 08:43:12;;;;;;;;;;;6.40;1.00;;;;;;5010948;28;19917;-69
2021/11/16 08:45:40;;;;;;;;;;;6.40;1.00;;;;;;5012516;28;19976;-68
2021/11/16 08:48:06;;;;;;;;;;;6.50;1.00;;;;;;5011189;28;19914;-68
2021/11/16 08:50:33;;;;;;;;;;;6.50;1.00;;;;;;5011942;28;20008;-69
2021/11/16 08:53:00;;;;;;;;;;;6.50;1.00;;;;;;5010058;28;19918;-69
2021/11/16 08:55:28;;;;;;;;;;;6.50;1.00;;;;;;5012433;28;19909;-69
2021/11/16 08:57:55;;;;;;;;;;;6.60;1.00;;;;;;5011607;28;19917;-69
2021/11/16 09:00:23;;;;;;;;;;;6.60;1.00;;;;;;5011984;28;19969;-69
2021/11/16 09:02:49;;;;;;;;;;;6.60;1.00;;;;;;5010611;28;20341;-69
2021/11/16 09:05:16;;;;;;;;;;;6.60;1.00;;;;;;5012785;28;19914;-69
2021/11/16 09:07:49;;;;;;;;;;;6.60;1.00;;;;;;5010773;28;19943;-69
2021/11/16 09:10:14;;;;;;;;;;;6.60;1.00;;;;;;5011823;28;19932;-69
2021/11/16 09:12:50;;;;;;;;;;;6.60;99.90;;;;;;5010737;28;19913;-69
2021/11/16 09:15:21;;;;;;;;;;;6.60;99.90;;;;;;5011101;28;19944;-69
2021/11/16 09:17:47;;;;;;;;;;;6.60;99.90;;;;;;5011442;28;19917;-70
2021/11/16 09:20:12;;;;;;;;;;;6.70;99.90;;;;;;5011598;28;20477;-70
2021/11/16 09:22:38;;;;;;;;;;;6.70;99.90;;;;;;5009091;28;19929;-69
2021/11/16 09:25:18;;;;;;;;;;;6.80;99.90;;;;;;5012192;28;19910;-72
2021/11/16 09:27:45;;;;;;;;;;;6.90;28.90;;;;;;5011565;28;20330;-69
2021/11/16 09:30:13;;;;;;;;;;;6.90;1.00;;;;;;5011551;28;19928;-69
2021/11/16 09:32:57;;;;;;;;;;;6.90;99.90;;;;;;5010017;28;19922;-69
2021/11/16 09:35:39;;;;;;;;;;;6.90;1.00;;;;;;5011094;28;19917;-70
2021/11/16 09:38:04;;;;;;;;;;;6.90;1.00;;;;;;4988455;28;19937;-69
2021/11/16 09:40:30;;;;;;;;;;;6.80;1.00;;;;;;5011145;28;19964;-69
2021/11/16 09:42:58;;;;;;;;;;;6.80;1.00;;;;;;5010736;28;20240;-69
2021/11/16 09:45:26;;;;;;;;;;;6.70;99.90;;;;;;5011850;28;19913;-69
2021/11/16 09:47:51;;;;;;;;;;;6.70;1.00;;;;;;5011492;28;19940;-69
2021/11/16 09:50:21;;;;;;;;;;;6.70;1.00;;;;;;5011190;28;19917;-69
2021/11/16 09:52:49;;;;;;;;;;;6.70;1.00;;;;;;5003765;28;19917;-69
2021/11/16 09:55:16;;;;;;;;;;;6.80;1.00;;;;;;5011094;28;19913;-69
2021/11/16 09:57:43;;;;;;;;;;;6.80;1.00;;;;;;5010742;28;20278;-69
2021/11/16 10:00:08;;;;;;;;;;;6.80;1.00;;;;;;5011316;28;20231;-69
2021/11/16 10:02:34;;;;;;;;;;;6.80;1.00;;;;;;5008919;28;19917;-68
2021/11/16 10:05:03;;;;;;;;;;;6.80;1.00;;;;;;5010225;28;19924;-69
2021/11/16 10:07:29;;;;;;;;;;;6.80;1.00;;;;;;5008530;28;20283;-69
2021/11/16 10:09:54;;;;;;;;;;;6.80;1.00;;;;;;5010753;28;19920;-69
2021/11/16 10:12:24;;;;;;;;;;;6.80;1.00;;;;;;5009861;28;19983;-69
2021/11/16 10:14:50;;;;;;;;;;;6.70;1.00;;;;;;5010958;28;20244;-69
2021/11/16 10:17:16;;;;;;;;;;;6.70;1.00;;;;;;5009952;28;19982;-69
2021/11/16 10:19:42;;;;;;;;;;;6.80;1.00;;;;;;5010696;28;19921;-69
2021/11/16 10:22:11;;;;;;;;;;;6.70;1.00;;;;;;5009603;28;19925;-68
2021/11/16 10:24:37;;;;;;;;;;;6.70;1.00;;;;;;5009379;28;19976;-69
2021/11/16 10:27:23;;;;;;;;;;;6.50;1.00;;;;;;5010463;28;19913;-69
2021/11/16 10:30:07;;;;;;;;;;;6.30;1.00;;;;;;5009796;28;19960;-69
2021/11/16 10:32:33;;;;;;;;;;;6.30;99.90;;;;;;5008630;28;19921;-69
2021/11/16 10:35:15;;;;;;;;;;;6.40;99.90;;;;;;5010361;28;19963;-69
2021/11/16 10:37:47;;;;;;;;;;;6.50;99.90;;;;;;5008445;28;20374;-69
2021/11/16 10:40:13;;;;;;;;;;;6.50;99.90;;;;;;5010133;28;19924;-69
2021/11/16 10:42:41;;;;;;;;;;;6.50;99.90;;;;;;5008841;28;19933;-69
2021/11/16 10:45:11;;;;;;;;;;;6.50;99.90;;;;;;5009516;28;19917;-69
2021/11/16 10:47:37;;;;;;;;;;;6.50;99.90;;;;;;5009535;28;20294;-69
2021/11/16 10:50:06;;;;;;;;;;;6.60;1.00;;;;;;5009875;28;19968;-69
2021/11/16 10:52:33;;;;;;;;;;;6.70;1.00;;;;;;5007358;28;20363;-69
2021/11/16 10:54:58;;;;;;;;;;;6.70;1.00;;;;;;5009868;28;20250;-69
2021/11/16 10:57:24;;;;;;;;;;;6.60;1.00;;;;;;5008950;28;19918;-70
2021/11/16 10:59:57;;;;;;;;;;;6.60;1.00;;;;;;5009878;28;19916;-69
2021/11/16 11:02:23;;;;;;;;;;;6.40;13.00;;;;;;5008345;28;19917;-69
2021/11/16 11:04:49;;;;;;;;;;;6.50;99.90;;;;;;5010080;28;20351;-69
2021/11/16 11:07:15;;;;;;;;;;;6.50;99.90;;;;;;5008697;28;19914;-69
2021/11/16 11:09:41;;;;;;;;;;;6.60;99.90;;;;;;5008254;28;19982;-69
2021/11/16 11:12:21;;;;;;;;;;;6.70;99.90;;;;;;5010714;28;19917;-70
2021/11/16 11:14:46;;;;;;;;;;;6.80;99.90;;;;;;5011385;28;19924;-69
2021/11/16 11:17:12;;;;;;;;;;;6.90;1.00;;;;;;5008824;28;20371;-69
2021/11/16 11:19:42;;;;;;;;;;;6.80;1.00;;;;;;5009031;28;20391;-70
2021/11/16 11:22:30;;;;;;;;;;;6.70;1.00;;;;;;5008734;28;19916;-70
2021/11/16 11:28:00;;;;;;;;;;;6.80;1.00;;;;;;5008594;28;20323;-70
2021/11/16 11:30:26;;;;;;;;;;;6.90;1.00;;;;;;5004638;28;19913;-69
2021/11/16 11:32:52;;;;;;;;;;;7.00;1.00;;;;;;5006845;28;19917;-71
2021/11/16 11:35:19;;;;;;;;;;;7.00;99.90;;;;;;4980254;28;19910;-71
2021/11/16 11:37:45;;;;;;;;;;;7.00;99.90;;;;;;5007924;28;20253;-68
2021/11/16 11:40:12;;;;;;;;;;;7.00;1.00;;;;;;5009700;28;19963;-69
2021/11/16 11:42:39;;;;;;;;;;;6.80;1.00;;;;;;5007568;28;20512;-71
2021/11/16 11:45:20;;;;;;;;;;;6.80;1.00;;;;;;5009461;28;19909;-69
2021/11/16 11:47:47;;;;;;;;;;;6.90;1.00;;;;;;4991723;28;19973;-69
2021/11/16 11:50:18;;;;;;;;;;;6.80;99.90;;;;;;5009396;28;19914;-69
2021/11/16 11:52:45;;;;;;;;;;;6.70;1.00;;;;;;5006294;28;20004;-69
2021/11/16 11:55:11;;;;;;;;;;;6.70;1.00;;;;;;5008660;28;19914;-69
2021/11/16 11:57:37;;;;;;;;;;;6.70;1.00;;;;;;5008335;28;19921;-69
2021/11/16 12:00:03;;;;;;;;;;;6.80;1.00;;;;;;5016331;28;19921;-69
2021/11/16 12:02:31;;;;;;;;;;;6.70;1.00;;;;;;5011939;28;20025;-69
2021/11/16 12:04:57;;;;;;;;;;;6.70;1.00;;;;;;5008809;28;19917;-69
2021/11/16 12:07:25;;;;;;;;;;;6.70;1.00;;;;;;5007672;28;19914;-68
2021/11/16 12:09:53;;;;;;;;;;;6.80;99.90;;;;;;5012592;28;19952;-69
2021/11/16 12:12:19;;;;;;;;;;;6.90;1.00;;;;;;5011778;28;20358;-69
2021/11/16 12:14:48;;;;;;;;;;;6.80;1.00;;;;;;5012861;28;19914;-69
2021/11/16 12:17:16;;;;;;;;;;;6.70;1.00;;;;;;5012767;28;19953;-69
2021/11/16 12:19:48;;;;;;;;;;;6.70;99.90;;;;;;5012194;28;19913;-69
2021/11/16 12:22:16;;;;;;;;;;;6.80;1.00;;;;;;5010975;28;19938;-68
2021/11/16 12:24:46;;;;;;;;;;;6.80;1.00;;;;;;5011325;28;20335;-69
2021/11/16 12:27:12;;;;;;;;;;;6.80;1.00;;;;;;5012797;28;20259;-69
2021/11/16 12:29:56;;;;;;;;;;;6.90;1.00;;;;;;5011267;28;19971;-69
2021/11/16 12:32:22;;;;;;;;;;;6.80;1.00;;;;;;5011280;28;19917;-69
2021/11/16 12:34:52;;;;;;;;;;;6.80;1.00;;;;;;5013324;28;19910;-68
2021/11/16 12:37:50;;;;;;;;;;;6.80;99.90;;;;;;5011344;28;20008;-69
2021/11/16 12:40:22;;;;;;;;;;;6.90;99.90;;;;;;4958525;28;20367;-69
2021/11/16 12:43:05;;;;;;;;;;;6.70;99.90;;;;;;5011625;28;20083;-69
2021/11/16 12:45:45;;;;;;;;;;;6.70;1.00;;;;;;5011911;28;19920;-69
2021/11/16 12:48:12;;;;;;;;;;;6.70;1.00;;;;;;5011692;28;20339;-69
2021/11/16 12:50:38;;;;;;;;;;;6.70;1.00;;;;;;5005319;28;19913;-69
2021/11/16 12:53:04;;;;;;;;;;;6.80;1.00;;;;;;5002775;28;19910;-69
2021/11/16 12:55:31;;;;;;;;;;;6.70;1.00;;;;;;5012464;28;20362;-69
2021/11/16 12:57:58;;;;;;;;;;;6.70;1.00;;;;;;5011062;28;19918;-69
2021/11/16 13:00:34;;;;;;;;;;;6.70;1.00;;;;;;4992127;28;20011;-69
2021/11/16 13:03:00;;;;;;;;;;;6.70;1.00;;;;;;5010835;28;19918;-69
2021/11/16 13:05:42;;;;;;;;;;;6.70;1.00;;;;;;5012810;28;20297;-69
2021/11/16 13:08:09;;;;;;;;;;;6.70;1.00;;;;;;5010151;28;19940;-69
2021/11/16 13:10:54;;;;;;;;;;;6.70;1.00;;;;;;5012352;28;19941;-69
2021/11/16 13:13:31;;;;;;;;;;;6.60;1.00;;;;;;4991551;28;20291;-69
2021/11/16 13:16:02;;;;;;;;;;;6.70;1.00;;;;;;4993048;28;20001;-69
2021/11/16 13:18:30;;;;;;;;;;;6.70;1.00;;;;;;4993650;28;19913;-69
2021/11/16 13:21:07;;;;;;;;;;;6.70;1.00;;;;;;5011592;28;19909;-70
2021/11/16 13:23:34;;;;;;;;;;;6.60;89.00;;;;;;5009477;28;19913;-69
2021/11/16 13:26:03;;;;;;;;;;;6.60;99.90;;;;;;5011273;28;20254;-69
2021/11/16 13:31:02;;;;;;;;;;;6.60;99.90;;;;;;5011790;28;19948;-69
2021/11/16 13:33:46;;;;;;;;;;;6.60;99.90;;;;;;5010745;28;19987;-70
2021/11/16 13:36:14;;;;;;;;;;;6.50;99.90;;;;;;5011346;28;19920;-69
2021/11/16 13:38:58;;;;;;;;;;;6.50;99.90;;;;;;5009747;28;19921;-68
2021/11/16 13:41:42;;;;;;;;;;;6.50;99.90;;;;;;4991385;28;19934;-67
2021/11/16 13:44:16;;;;;;;;;;;6.60;99.90;;;;;;5009346;28;20008;-67
2021/11/16 13:46:42;;;;;;;;;;;6.60;99.90;;;;;;5011076;28;19921;-68
2021/11/16 13:49:08;;;;;;;;;;;6.40;80.80;;;;;;5011085;28;19918;-69
2021/11/16 13:51:35;;;;;;;;;;;6.40;99.90;;;;;;5011170;28;19947;-69
2021/11/16 13:54:01;;;;;;;;;;;6.40;49.70;;;;;;5009118;28;19921;-69
2021/11/16 13:56:27;;;;;;;;;;;6.30;99.90;;;;;;5010702;28;20291;-68
2021/11/16 13:58:52;;;;;;;;;;;6.30;99.90;;;;;;5010552;28;19956;-69
2021/11/16 14:01:29;;;;;;;;;;;6.40;99.90;;;;;;5011171;28;19945;-68
2021/11/16 14:04:27;;;;;;;;;;;6.40;99.90;;;;;;5009830;28;19921;-69
2021/11/16 14:07:06;;;;;;;;;;;6.50;99.90;;;;;;4966846;28;20024;-68
2021/11/16 14:09:32;;;;;;;;;;;6.40;1.00;;;;;;5009356;28;20011;-68
2021/11/16 14:11:58;;;;;;;;;;;6.50;49.40;;;;;;5010348;28;20012;-68
2021/11/16 14:14:26;;;;;;;;;;;6.50;93.30;;;;;;5011145;28;19992;-67
2021/11/16 14:16:53;;;;;;;;;;;6.50;7.80;;;;;;5010293;28;20386;-68
2021/11/16 14:19:21;;;;;;;;;;;6.50;1.00;;;;;;4993236;28;20020;-68
2021/11/16 14:21:48;;;;;;;;;;;6.50;1.00;;;;;;5009505;28;19924;-69
2021/11/16 14:24:24;;;;;;;;;;;6.50;1.00;;;;;;5009227;28;20278;-68
2021/11/16 14:26:49;;;;;;;;;;;6.30;1.00;;;;;;5010291;28;19916;-67
2021/11/16 14:29:15;;;;;;;;;;;6.20;1.00;;;;;;4997030;28;19914;-69
2021/11/16 14:31:41;;;;;;;;;;;6.20;99.90;;;;;;4992620;28;20013;-68
2021/11/16 14:34:18;;;;;;;;;;;6.10;99.90;;;;;;5009329;28;20510;-67
2021/11/16 14:36:45;;;;;;;;;;;6.20;99.90;;;;;;5009781;28;19914;-68
2021/11/16 14:39:32;;;;;;;;;;;6.20;99.90;;;;;;5008221;28;19918;-68
2021/11/16 14:42:01;;;;;;;;;;;6.10;99.90;;;;;;5009152;28;19920;-68
2021/11/16 14:44:31;;;;;;;;;;;6.00;99.90;;;;;;5009180;28;19940;-68
2021/11/16 14:47:00;;;;;;;;;;;6.00;1.00;;;;;;5010149;28;20290;-68
2021/11/16 14:49:28;;;;;;;;;;;6.00;1.00;;;;;;5009710;28;20397;-68
2021/11/16 14:51:55;;;;;;;;;;;6.10;1.00;;;;;;5009100;28;19917;-69
2021/11/16 14:54:22;;;;;;;;;;;6.10;1.00;;;;;;5007831;28;19917;-68
2021/11/16 14:56:48;;;;;;;;;;;6.00;99.90;;;;;;5009362;28;19989;-68
2021/11/16 14:59:16;;;;;;;;;;;5.80;1.00;;;;;;5009558;28;19971;-69
2021/11/16 15:01:48;;;;;;;;;;;5.80;1.00;;;;;;5009409;28;19929;-68
2021/11/16 15:04:24;;;;;;;;;;;5.70;1.00;;;;;;5009535;28;20298;-68
2021/11/16 15:07:00;;;;;;;;;;;5.80;1.00;;;;;;5009044;28;19914;-69